Time;durP1;ratioP1;P1;durP2;ratioP2;P2;SDS_P1;SDS_P2;PMS_P1;PMS_P2;Temp;Humidity;BMP_temperature;BMP_pressure;BME280_temperature;BME280_humidity;BME280_pressure;Samples;Min_cycle;Max_cycle;Signal;HPM_P1;HPM_P2
2023/08/09 00:00:35;;;;;;;5.93;1.17;;;10.40;99.90;;;;;;5051007;28;20412;-93
2023/08/09 00:03:01;;;;;;;3.83;1.00;;;10.90;99.90;;;;;;5050188;28;20432;-93
2023/08/09 00:05:27;;;;;;;5.03;1.10;;;10.70;99.90;;;;;;5050791;28;20405;-92
2023/08/09 00:07:53;;;;;;;4.18;1.10;;;10.80;99.90;;;;;;5050066;28;20414;-92
2023/08/09 00:10:19;;;;;;;6.80;1.40;;;10.50;99.90;;;;;;5050564;28;20408;-92
2023/08/09 00:12:45;;;;;;;4.85;1.20;;;11.50;99.90;;;;;;5050262;28;20407;-92
2023/08/09 00:15:11;;;;;;;4.00;1.08;;;11.60;99.90;;;;;;5050575;28;20895;-94
2023/08/09 00:17:37;;;;;;;3.93;1.10;;;10.80;99.90;;;;;;5051048;28;20392;-91
2023/08/09 00:20:04;;;;;;;3.60;1.30;;;10.80;99.90;;;;;;5050579;28;20460;-90
2023/08/09 00:22:30;;;;;;;5.72;1.10;;;10.50;99.90;;;;;;5050888;28;20411;-92
2023/08/09 00:24:56;;;;;;;3.50;0.90;;;10.90;99.90;;;;;;5050451;28;20408;-91
2023/08/09 00:27:23;;;;;;;4.60;0.95;;;11.20;99.90;;;;;;5050413;28;20414;-91
2023/08/09 00:29:48;;;;;;;6.82;1.02;;;10.70;99.90;;;;;;5049505;28;20440;-93
2023/08/09 00:32:14;;;;;;;3.03;1.03;;;10.50;99.90;;;;;;5050028;28;20889;-93
2023/08/09 00:34:40;;;;;;;2.55;0.80;;;10.50;99.90;;;;;;5050184;28;20418;-92
2023/08/09 00:37:05;;;;;;;3.13;1.00;;;10.50;99.90;;;;;;5050538;28;20461;-92
2023/08/09 00:39:31;;;;;;;4.10;0.83;;;10.70;99.90;;;;;;5050494;28;20842;-92
2023/08/09 00:41:57;;;;;;;3.78;0.93;;;10.50;99.90;;;;;;5049702;28;20926;-92
2023/08/09 00:44:23;;;;;;;4.78;1.00;;;10.40;99.90;;;;;;5050181;28;20446;-91
2023/08/09 00:46:49;;;;;;;4.75;1.48;;;10.50;99.90;;;;;;5049463;28;20931;-92
2023/08/09 00:49:16;;;;;;;5.20;1.02;;;10.40;99.90;;;;;;5049990;28;20404;-93
2023/08/09 00:51:43;;;;;;;4.07;0.90;;;10.60;99.90;;;;;;5049667;28;20506;-92
2023/08/09 00:54:09;;;;;;;3.00;0.90;;;10.60;99.90;;;;;;5049674;28;20487;-91
2023/08/09 00:56:35;;;;;;;3.72;0.95;;;10.10;99.90;;;;;;5049902;28;20422;-92
2023/08/09 00:59:02;;;;;;;3.47;0.82;;;10.40;99.90;;;;;;5049443;28;20465;-91
2023/08/09 01:01:28;;;;;;;4.15;1.20;;;10.50;99.90;;;;;;5049990;28;20502;-91
2023/08/09 01:03:54;;;;;;;3.07;0.90;;;10.20;99.90;;;;;;5049336;28;20408;-91
2023/08/09 01:06:55;;;;;;;2.53;1.00;;;10.30;99.90;;;;;;5049799;28;20431;-93
2023/08/09 01:09:26;;;;;;;5.05;1.30;;;10.10;99.90;;;;;;5049495;28;20422;-94
2023/08/09 01:11:55;;;;;;;4.07;1.00;;;10.10;99.90;;;;;;5049282;28;20916;-92
2023/08/09 01:14:22;;;;;;;4.45;1.23;;;10.30;99.90;;;;;;5049314;28;20419;-93
2023/08/09 01:16:51;;;;;;;3.60;0.90;;;10.90;99.90;;;;;;5048306;28;20906;-90
2023/08/09 01:19:38;;;;;;;3.50;1.03;;;10.30;99.90;;;;;;5049484;28;20540;-92
2023/08/09 01:22:10;;;;;;;4.33;1.00;;;10.20;99.90;;;;;;5049126;28;20407;-92
2023/08/09 01:24:36;;;;;;;4.03;1.10;;;10.20;99.90;;;;;;5049430;28;20392;-91
2023/08/09 01:27:02;;;;;;;3.28;1.20;;;10.00;99.90;;;;;;5049330;28;20437;-92
2023/08/09 01:29:28;;;;;;;4.00;1.00;;;9.90;99.90;;;;;;5049176;28;20457;-92
2023/08/09 01:31:54;;;;;;;4.50;0.93;;;10.30;99.90;;;;;;5049016;28;20950;-92
2023/08/09 01:34:20;;;;;;;3.92;1.00;;;9.90;99.90;;;;;;5048347;28;20839;-92
2023/08/09 01:36:50;;;;;;;2.38;0.90;;;10.00;99.90;;;;;;5048960;28;20412;-92
2023/08/09 01:39:24;;;;;;;3.92;1.10;;;9.80;99.90;;;;;;5048725;28;20416;-91
2023/08/09 01:41:51;;;;;;;4.20;1.20;;;9.80;99.90;;;;;;5048788;28;20404;-92
2023/08/09 01:44:17;;;;;;;4.30;1.20;;;9.90;99.90;;;;;;5049394;28;20404;-92
2023/08/09 01:46:43;;;;;;;3.80;1.27;;;9.90;99.90;;;;;;5048481;28;20422;-91
2023/08/09 01:49:21;;;;;;;5.18;1.30;;;9.80;99.90;;;;;;5048750;28;20392;-91
2023/08/09 01:51:47;;;;;;;6.50;1.83;;;10.00;99.90;;;;;;5048103;28;20419;-92
2023/08/09 01:54:13;;;;;;;3.43;1.10;;;9.70;99.90;;;;;;5048862;28;20461;-91
2023/08/09 01:56:40;;;;;;;2.28;0.80;;;10.00;99.90;;;;;;5048487;28;20495;-92
2023/08/09 01:59:05;;;;;;;3.97;1.20;;;10.30;99.90;;;;;;5048630;28;20404;-93
2023/08/09 02:01:32;;;;;;;4.10;1.25;;;10.00;99.90;;;;;;5048854;28;20469;-93
2023/08/09 02:03:58;;;;;;;4.18;1.20;;;10.50;99.90;;;;;;5048163;28;20490;-92
2023/08/09 02:06:23;;;;;;;4.80;1.50;;;9.50;99.90;;;;;;5048866;28;20502;-92
2023/08/09 02:08:49;;;;;;;3.13;0.90;;;9.90;99.90;;;;;;5048396;28;20453;-91
2023/08/09 02:11:15;;;;;;;2.73;1.17;;;9.60;99.90;;;;;;5048725;28;20501;-93
2023/08/09 02:13:40;;;;;;;3.35;1.20;;;9.50;99.90;;;;;;5047933;28;20576;-93
2023/08/09 02:16:06;;;;;;;4.50;1.23;;;9.60;99.90;;;;;;5048280;28;20470;-91
2023/08/09 02:18:33;;;;;;;2.85;1.10;;;9.50;99.90;;;;;;5048187;28;20400;-92
2023/08/09 02:21:00;;;;;;;2.90;1.10;;;9.70;99.90;;;;;;5047912;28;20482;-91
2023/08/09 02:23:26;;;;;;;3.17;1.02;;;9.70;99.90;;;;;;5048923;28;20404;-92
2023/08/09 02:25:56;;;;;;;4.30;0.93;;;9.70;99.90;;;;;;5047413;28;20933;-92
2023/08/09 02:28:21;;;;;;;3.03;1.20;;;10.10;99.90;;;;;;5048712;28;20416;-91
2023/08/09 02:30:49;;;;;;;4.10;1.27;;;10.20;99.90;;;;;;5047260;28;20431;-91
2023/08/09 02:33:15;;;;;;;3.80;1.33;;;9.10;99.90;;;;;;5047711;28;20437;-92
2023/08/09 02:35:58;;;;;;;3.35;0.93;;;9.60;99.90;;;;;;5048249;28;20808;-90
2023/08/09 02:38:25;;;;;;;3.47;1.00;;;9.30;99.90;;;;;;5047916;28;20416;-91
2023/08/09 02:40:51;;;;;;;3.60;1.50;;;9.40;99.90;;;;;;5048502;28;20486;-91
2023/08/09 02:43:19;;;;;;;4.50;1.15;;;9.70;99.90;;;;;;5047517;28;20411;-92
2023/08/09 02:45:45;;;;;;;4.85;1.65;;;9.40;99.90;;;;;;5048125;28;20400;-92
2023/08/09 02:48:13;;;;;;;5.07;1.85;;;9.20;99.90;;;;;;5047551;28;20868;-92
2023/08/09 02:50:39;;;;;;;4.65;1.50;;;9.60;99.90;;;;;;5048356;28;20969;-93
2023/08/09 02:53:05;;;;;;;5.22;1.40;;;9.40;99.90;;;;;;5047917;28;20410;-91
2023/08/09 02:55:32;;;;;;;4.60;1.40;;;9.40;99.90;;;;;;5047954;28;20410;-92
2023/08/09 02:58:03;;;;;;;3.80;1.27;;;9.40;99.90;;;;;;5048430;28;20400;-92
2023/08/09 03:00:29;;;;;;;2.80;1.20;;;9.20;99.90;;;;;;5047477;28;20451;-91
2023/08/09 03:02:55;;;;;;;3.37;0.93;;;9.10;99.90;;;;;;5048543;28;20494;-92
2023/08/09 03:05:21;;;;;;;3.43;1.30;;;9.40;99.90;;;;;;5046850;28;20527;-91
2023/08/09 03:07:47;;;;;;;3.53;1.10;;;9.30;99.90;;;;;;5047944;28;20407;-91
2023/08/09 03:10:12;;;;;;;2.95;1.05;;;9.40;99.90;;;;;;5047897;28;20510;-92
2023/08/09 03:12:38;;;;;;;2.90;1.10;;;9.30;99.90;;;;;;5047664;28;21115;-92
2023/08/09 03:15:05;;;;;;;4.53;1.60;;;9.10;99.90;;;;;;5047880;28;20730;-93
2023/08/09 03:17:32;;;;;;;4.47;1.27;;;9.00;99.90;;;;;;5047379;28;20420;-92
2023/08/09 03:19:58;;;;;;;4.07;1.45;;;9.10;99.90;;;;;;5048137;28;20457;-91
2023/08/09 03:22:23;;;;;;;5.35;1.60;;;8.80;99.90;;;;;;5046935;28;20767;-91
2023/08/09 03:24:50;;;;;;;3.30;1.57;;;9.50;99.90;;;;;;5047954;28;20451;-91
2023/08/09 03:27:15;;;;;;;3.88;1.63;;;9.10;99.90;;;;;;5047248;28;20504;-91
2023/08/09 03:29:41;;;;;;;4.63;1.42;;;9.30;99.90;;;;;;5047276;28;20762;-92
2023/08/09 03:32:07;;;;;;;3.88;1.40;;;8.90;99.90;;;;;;5047460;28;20938;-92
2023/08/09 03:34:33;;;;;;;5.68;1.60;;;8.90;99.90;;;;;;5047533;28;20418;-91
2023/08/09 03:36:58;;;;;;;5.03;1.70;;;9.10;99.90;;;;;;5047823;28;20869;-91
2023/08/09 03:39:25;;;;;;;4.27;1.90;;;9.20;99.90;;;;;;5049621;28;20452;-92
2023/08/09 03:41:51;;;;;;;3.85;1.40;;;9.50;99.90;;;;;;5051123;28;20404;-92
2023/08/09 03:44:17;;;;;;;6.15;2.38;;;8.80;99.90;;;;;;5050479;28;20952;-91
2023/08/09 03:46:43;;;;;;;6.13;1.95;;;8.90;99.90;;;;;;5051694;28;20399;-92
2023/08/09 03:49:09;;;;;;;4.70;2.00;;;9.00;99.90;;;;;;5050765;28;20396;-92
2023/08/09 03:51:35;;;;;;;4.13;1.77;;;8.90;99.90;;;;;;5050549;28;20748;-91
2023/08/09 03:54:00;;;;;;;5.30;2.17;;;9.30;99.90;;;;;;5051753;28;20407;-91
2023/08/09 03:56:27;;;;;;;4.27;2.40;;;8.70;99.90;;;;;;5050511;28;20415;-91
2023/08/09 03:58:52;;;;;;;6.07;2.23;;;9.20;99.90;;;;;;5051249;28;20480;-91
2023/08/09 04:01:18;;;;;;;4.63;2.10;;;8.80;99.90;;;;;;5050212;28;20400;-90
2023/08/09 04:03:44;;;;;;;3.35;1.80;;;9.40;99.90;;;;;;5051158;28;20490;-91
2023/08/09 04:06:14;;;;;;;4.72;2.08;;;9.00;99.90;;;;;;5050185;28;20498;-92
2023/08/09 04:08:39;;;;;;;6.35;2.50;;;9.10;99.90;;;;;;5050892;28;21005;-90
2023/08/09 04:11:05;;;;;;;4.30;2.50;;;9.10;99.90;;;;;;5050606;28;20459;-91
2023/08/09 04:13:31;;;;;;;5.13;2.90;;;8.70;99.90;;;;;;5050298;28;20419;-90
2023/08/09 04:15:57;;;;;;;4.18;2.50;;;8.70;99.90;;;;;;5051060;28;20415;-91
2023/08/09 04:18:23;;;;;;;3.90;2.30;;;8.90;99.90;;;;;;5050297;28;20451;-90
2023/08/09 04:20:50;;;;;;;5.05;2.55;;;8.90;99.90;;;;;;5050838;28;20487;-92
2023/08/09 04:23:17;;;;;;;5.57;2.90;;;9.00;99.90;;;;;;5049863;28;20440;-92
2023/08/09 04:25:44;;;;;;;6.93;2.80;;;8.80;99.90;;;;;;5050410;28;20408;-91
2023/08/09 04:28:10;;;;;;;4.90;2.53;;;8.80;99.90;;;;;;5050839;28;20545;-91
2023/08/09 04:30:36;;;;;;;4.80;2.40;;;9.10;99.90;;;;;;5050204;28;20406;-93
2023/08/09 04:33:03;;;;;;;5.03;2.47;;;8.80;99.90;;;;;;5050081;28;20416;-91
2023/08/09 04:35:33;;;;;;;5.43;2.97;;;8.80;99.90;;;;;;5049633;28;20488;-91
2023/08/09 04:38:03;;;;;;;7.72;3.60;;;9.00;99.90;;;;;;5050272;28;20426;-91
2023/08/09 04:40:32;;;;;;;6.97;3.78;;;9.20;99.90;;;;;;5049855;28;20410;-91
2023/08/09 04:42:57;;;;;;;4.50;3.30;;;8.90;99.90;;;;;;5050261;28;20942;-92
2023/08/09 04:45:24;;;;;;;8.60;5.05;;;9.60;99.90;;;;;;5049801;28;20462;-92
2023/08/09 04:47:52;;;;;;;4.82;3.58;;;9.30;99.90;;;;;;5049576;28;20434;-92
2023/08/09 04:50:20;;;;;;;3.95;2.97;;;9.10;99.90;;;;;;5050152;28;20906;-91
2023/08/09 04:52:46;;;;;;;6.10;4.03;;;9.60;99.90;;;;;;5049408;28;20958;-91
2023/08/09 04:55:12;;;;;;;7.55;3.85;;;9.30;99.90;;;;;;5049802;28;20411;-90
2023/08/09 04:57:38;;;;;;;5.68;3.58;;;9.50;99.90;;;;;;5048911;28;20396;-90
2023/08/09 05:00:08;;;;;;;4.38;3.20;;;9.90;99.90;;;;;;5050224;28;20775;-91
2023/08/09 05:02:36;;;;;;;4.53;3.05;;;9.60;99.90;;;;;;5049934;28;20399;-93
2023/08/09 05:05:06;;;;;;;6.75;4.03;;;10.00;99.90;;;;;;5048895;28;20411;-91
2023/08/09 05:07:32;;;;;;;6.50;3.47;;;9.90;99.90;;;;;;5050092;28;20481;-91
2023/08/09 05:09:57;;;;;;;7.38;4.28;;;10.40;99.90;;;;;;5048848;28;20404;-90
2023/08/09 05:12:23;;;;;;;6.30;3.53;;;10.40;99.90;;;;;;5049665;28;20465;-91
2023/08/09 05:14:49;;;;;;;7.37;3.50;;;10.50;99.90;;;;;;5048969;28;20779;-92
2023/08/09 05:17:14;;;;;;;6.45;3.25;;;10.70;99.90;;;;;;5049481;28;21210;-92
2023/08/09 05:19:40;;;;;;;6.43;3.27;;;10.80;99.90;;;;;;5049009;28;20407;-92
2023/08/09 05:22:06;;;;;;;6.30;3.40;;;11.40;99.90;;;;;;5048956;28;20416;-92
2023/08/09 05:24:31;;;;;;;7.77;3.27;;;11.20;99.90;;;;;;5049847;28;20451;-93
2023/08/09 05:26:57;;;;;;;5.53;2.93;;;11.50;99.90;;;;;;5049178;28;20400;-91
2023/08/09 05:29:23;;;;;;;7.90;3.40;;;11.30;99.90;;;;;;5049363;28;20407;-93
2023/08/09 05:31:48;;;;;;;5.10;2.30;;;11.80;99.90;;;;;;5042867;28;20948;-93
2023/08/09 05:34:14;;;;;;;5.28;2.40;;;11.60;99.90;;;;;;5027854;28;20504;-94
2023/08/09 05:36:40;;;;;;;5.20;2.30;;;12.00;99.90;;;;;;5044691;28;20417;-94
2023/08/09 05:39:07;;;;;;;5.37;2.30;;;12.50;99.90;;;;;;5044873;28;20774;-94
2023/08/09 05:41:33;;;;;;;5.18;2.20;;;12.30;99.90;;;;;;5061406;28;20904;-94
2023/08/09 05:43:59;;;;;;;6.28;2.47;;;12.20;99.90;;;;;;5067509;28;20409;-94
2023/08/09 05:46:24;;;;;;;5.17;2.10;;;12.80;99.90;;;;;;5068596;28;20427;-93
2023/08/09 05:48:50;;;;;;;6.15;2.20;;;12.80;99.90;;;;;;5067423;28;20401;-94
2023/08/09 05:51:16;;;;;;;5.87;2.10;;;12.40;99.90;;;;;;5067887;28;20483;-94
2023/08/09 05:53:42;;;;;;;5.22;1.77;;;13.00;99.90;;;;;;5067081;28;20590;-94
2023/08/09 05:56:07;;;;;;;6.00;1.50;;;13.20;99.90;;;;;;5067908;28;20412;-93
2023/08/09 05:58:33;;;;;;;3.78;1.30;;;13.80;99.90;;;;;;5068071;28;20699;-95
2023/08/09 06:01:35;;;;;;;;;;;;;;;;;;;;;
2023/08/09 06:04:40;;;;;;;3.85;1.10;;;13.50;99.90;;;;;;5084703;28;20986;-95
2023/08/09 06:07:05;;;;;;;4.57;0.90;;;13.60;99.90;;;;;;5061200;28;20398;-93
2023/08/09 06:09:35;;;;;;;3.00;0.90;;;13.90;99.90;;;;;;5067745;28;20441;-94
2023/08/09 06:15:18;;;;;;;3.22;0.70;;;14.00;99.90;;;;;;5062716;28;20412;-94
2023/08/09 06:17:59;;;;;;;4.40;0.80;;;14.40;99.90;;;;;;5045017;28;20486;-94
2023/08/09 06:20:27;;;;;;;2.78;0.63;;;14.40;99.90;;;;;;5046117;28;20404;-93
2023/08/09 06:22:53;;;;;;;2.47;0.43;;;14.50;99.90;;;;;;5047398;28;20985;-94
2023/08/09 06:25:34;;;;;;;;;;;;;;;;;;;;;
2023/08/09 06:28:13;;;;;;;3.60;0.50;;;15.00;99.90;;;;;;5064331;28;20475;-93
2023/08/09 06:30:39;;;;;;;4.97;0.90;;;15.30;99.90;;;;;;5047479;28;20482;-94
2023/08/09 06:33:04;;;;;;;3.88;0.40;;;15.10;99.90;;;;;;5046644;28;20400;-94
2023/08/09 06:35:51;;;;;;;;;;;;;;;;;;;;;
2023/08/09 06:38:23;;;;;;;1.83;0.40;;;15.40;99.90;;;;;;5061501;28;20416;-94
2023/08/09 06:41:09;;;;;;;3.83;0.50;;;15.20;99.90;;;;;;5047998;28;20410;-94
2023/08/09 06:43:37;;;;;;;4.82;0.50;;;15.60;99.90;;;;;;5046423;28;20410;-93
2023/08/09 06:46:03;;;;;;;2.42;0.60;;;16.10;99.90;;;;;;5047041;28;20407;-93
2023/08/09 06:48:32;;;;;;;3.05;0.60;;;16.30;99.90;;;;;;5047786;28;20487;-93
2023/08/09 06:51:15;;;;;;;2.75;0.50;;;16.20;99.90;;;;;;5046483;28;20434;-95
2023/08/09 06:53:41;;;;;;;3.28;0.60;;;16.20;99.90;;;;;;5046805;28;20408;-94
2023/08/09 06:56:07;;;;;;;4.10;0.60;;;16.70;99.90;;;;;;5046222;28;20485;-93
2023/08/09 06:59:34;;;;;;;6.07;0.80;;;16.40;99.90;;;;;;5047624;28;20499;-94
2023/08/09 07:02:39;;;;;;;;;;;;;;;;;;;;;
2023/08/09 07:05:19;;;;;;;;;;;;;;;;;;;;;
2023/08/09 07:07:51;;;;;;;2.63;0.50;;;16.80;99.90;;;;;;5061792;28;20404;-94
2023/08/09 07:10:18;;;;;;;4.25;0.50;;;17.30;99.90;;;;;;5045954;28;20446;-93
2023/08/09 07:12:59;;;;;;;3.70;0.47;;;17.10;99.90;;;;;;5045057;28;20447;-94
2023/08/09 07:15:27;;;;;;;4.10;0.40;;;17.10;99.90;;;;;;5046569;28;20408;-95
2023/08/09 07:18:00;;;;;;;3.67;0.47;;;17.00;99.90;;;;;;5050621;28;20457;-94
2023/08/09 07:20:48;;;;;;;2.92;0.40;;;17.40;99.90;;;;;;5055601;28;20407;-94
2023/08/09 07:23:14;;;;;;;2.22;0.50;;;17.50;99.90;;;;;;5060857;28;20405;-96
2023/08/09 07:26:43;;;;;;;4.20;0.80;;;17.90;99.90;;;;;;5051803;28;20502;-95
2023/08/09 07:29:09;;;;;;;3.42;0.50;;;17.60;99.90;;;;;;4962469;28;21051;-92
2023/08/09 07:31:35;;;;;;;3.63;0.50;;;18.40;99.90;;;;;;5035465;28;20522;-94
2023/08/09 07:34:14;;;;;;;2.08;0.40;;;17.70;99.90;;;;;;5048741;28;20446;-93
2023/08/09 07:36:42;;;;;;;3.53;0.47;;;17.70;99.90;;;;;;5050462;28;20412;-95
2023/08/09 07:39:12;;;;;;;4.73;0.50;;;17.90;99.90;;;;;;5049429;28;20411;-94
2023/08/09 07:41:40;;;;;;;3.13;0.50;;;18.20;99.90;;;;;;5051149;28;20412;-94
2023/08/09 07:44:06;;;;;;;3.20;0.40;;;17.70;99.90;;;;;;5055376;28;20528;-93
2023/08/09 07:46:48;;;;;;;2.63;0.40;;;18.30;99.90;;;;;;5051617;28;21083;-95
2023/08/09 07:49:16;;;;;;;2.70;0.50;;;18.50;99.90;;;;;;5050196;28;20474;-94
2023/08/09 07:52:20;;;;;;;4.00;0.35;;;18.20;99.90;;;;;;5049741;28;20941;-94
2023/08/09 07:54:46;;;;;;;3.70;0.30;;;18.30;99.90;;;;;;5051055;28;21058;-94
2023/08/09 07:57:28;;;;;;;3.03;0.40;;;19.20;99.90;;;;;;5050182;28;20505;-92
2023/08/09 08:00:11;;;;;;;2.70;0.40;;;18.60;99.90;;;;;;5051241;28;20428;-95
2023/08/09 08:03:12;;;;;;;2.15;0.30;;;18.90;99.90;;;;;;5053895;28;20411;-95
2023/08/09 08:06:21;;;;;;;3.80;0.35;;;19.00;99.90;;;;;;4958123;28;20429;-94
2023/08/09 08:08:51;;;;;;;2.97;0.40;;;18.50;99.90;;;;;;4999768;28;20467;-94
2023/08/09 08:11:17;;;;;;;3.10;0.43;;;18.50;99.90;;;;;;5050586;28;20427;-94
2023/08/09 08:13:48;;;;;;;3.20;0.30;;;19.00;99.90;;;;;;5051686;28;20554;-94
2023/08/09 08:16:14;;;;;;;2.25;0.38;;;18.70;99.90;;;;;;5050103;28;20404;-94
2023/08/09 08:18:49;;;;;;;2.40;0.30;;;19.20;99.90;;;;;;5050600;28;20729;-95
2023/08/09 08:21:40;;;;;;;3.37;0.30;;;19.20;99.90;;;;;;5049661;28;20400;-93
2023/08/09 08:24:15;;;;;;;2.50;0.30;;;18.90;99.90;;;;;;5051683;28;20414;-93
2023/08/09 08:26:41;;;;;;;2.05;0.40;;;18.80;99.90;;;;;;5050596;28;20407;-91
2023/08/09 08:29:59;;;;;;;3.35;0.30;;;18.90;99.90;;;;;;5054288;28;20396;-94
2023/08/09 08:32:34;;;;;;;3.25;0.40;;;19.00;96.10;;;;;;5059799;28;20428;-95
2023/08/09 08:35:19;;;;;;;1.73;0.22;;;19.30;99.90;;;;;;5053316;28;20446;-94
2023/08/09 08:37:49;;;;;;;3.10;0.20;;;19.40;99.90;;;;;;5051893;28;20432;-94
2023/08/09 08:41:44;;;;;;;;;;;;;;;;;;;;;
2023/08/09 08:45:19;;;;;;;2.78;0.40;;;19.70;90.30;;;;;;5070099;28;20407;-93
2023/08/09 08:48:59;;;;;;;1.40;0.30;;;19.50;83.80;;;;;;5015099;28;20411;-94
2023/08/09 08:51:31;;;;;;;2.38;0.30;;;19.80;94.10;;;;;;5011726;28;20534;-93
2023/08/09 08:54:18;;;;;;;2.15;0.20;;;19.80;76.50;;;;;;5027987;28;20486;-94
2023/08/09 08:57:10;;;;;;;3.60;0.30;;;19.80;76.50;;;;;;5028468;28;20513;-95
2023/08/09 08:59:46;;;;;;;2.42;0.40;;;19.40;78.30;;;;;;5025511;28;20411;-94
2023/08/09 09:03:12;;;;;;;3.23;0.30;;;19.50;86.70;;;;;;5026342;28;20912;-95
2023/08/09 09:05:37;;;;;;;1.35;0.30;;;19.60;86.60;;;;;;4916864;29;20984;-93
2023/08/09 09:08:26;;;;;;;1.77;0.20;;;20.20;91.90;;;;;;4924220;28;20471;-94
2023/08/09 09:10:55;;;;;;;3.47;0.30;;;19.80;73.50;;;;;;5016402;28;20588;-94
2023/08/09 09:13:44;;;;;;;1.70;0.35;;;19.60;85.00;;;;;;4989907;28;20502;-94
2023/08/09 09:16:22;;;;;;;3.28;0.30;;;19.70;92.20;;;;;;5025417;28;20422;-94
2023/08/09 09:19:00;;;;;;;2.30;0.20;;;19.90;93.30;;;;;;5037448;28;20480;-94
2023/08/09 09:25:09;;;;;;;3.55;0.40;;;20.20;80.40;;;;;;4968040;28;20981;-95
2023/08/09 09:28:18;;;;;;;3.90;0.40;;;20.40;80.20;;;;;;4955219;28;20407;-94
2023/08/09 09:31:00;;;;;;;1.92;0.20;;;19.90;70.10;;;;;;5050980;28;20418;-94
2023/08/09 09:34:16;;;;;;;;;;;;;;;;;;;;;
2023/08/09 09:37:50;;;;;;;;;;;;;;;;;;;;;
2023/08/09 09:41:26;;;;;;;;;;;;;;;;;;;;;
2023/08/09 09:44:45;;;;;;;2.05;0.30;;;20.70;79.10;;;;;;4923225;28;20436;-95
2023/08/09 09:47:34;;;;;;;1.60;0.30;;;20.50;65.10;;;;;;4949056;28;20424;-95
2023/08/09 09:49:59;;;;;;;3.55;0.30;;;20.50;68.80;;;;;;4957345;28;20492;-94
2023/08/09 09:52:31;;;;;;;1.88;0.30;;;20.70;71.60;;;;;;5010683;28;20436;-94
2023/08/09 09:58:31;;;;;;;2.97;0.40;;;20.70;67.60;;;;;;5037676;28;20423;-94
2023/08/09 10:01:20;;;;;;;1.70;0.30;;;20.10;71.00;;;;;;5049381;28;20419;-95
2023/08/09 10:04:07;;;;;;;2.23;0.30;;;20.50;77.60;;;;;;5052840;28;20400;-94
2023/08/09 10:06:50;;;;;;;2.83;0.30;;;20.90;73.50;;;;;;5052058;28;20408;-94
2023/08/09 10:09:19;;;;;;;1.77;0.20;;;21.50;75.90;;;;;;5039956;28;20416;-96
2023/08/09 10:12:20;;;;;;;1.58;0.30;;;21.90;67.00;;;;;;5057047;28;20428;-94
2023/08/09 10:22:46;;;;;;;2.10;0.40;;;23.00;62.60;;;;;;4902269;29;20422;-94
2023/08/09 10:26:01;;;;;;;2.47;0.30;;;23.40;59.50;;;;;;4900518;29;20445;-94
2023/08/09 10:28:47;;;;;;;1.92;0.20;;;23.00;56.90;;;;;;4933486;28;20799;-95
2023/08/09 10:35:27;;;;;;;2.35;0.40;;;22.90;60.20;;;;;;4974914;28;20632;-95
2023/08/09 10:38:30;;;;;;;1.50;0.20;;;23.60;57.60;;;;;;4973001;28;20411;-94
2023/08/09 10:41:29;;;;;;;2.28;0.40;;;23.70;55.60;;;;;;4955285;28;20420;-95
2023/08/09 10:44:56;;;;;;;1.48;0.20;;;24.00;54.40;;;;;;4972654;28;20576;-94
2023/08/09 10:51:33;;;;;;;1.77;0.30;;;24.30;52.30;;;;;;4919161;29;20443;-94
2023/08/09 10:54:21;;;;;;;2.80;0.40;;;24.40;52.00;;;;;;4964512;28;20414;-95
2023/08/09 10:57:32;;;;;;;2.83;0.20;;;24.20;52.20;;;;;;4982237;28;20412;-95
2023/08/09 11:04:31;;;;;;;;;;;;;;;;;;;;;
2023/08/09 11:07:31;;;;;;;2.20;0.30;;;22.50;60.90;;;;;;4997342;28;20416;-95
2023/08/09 11:10:39;;;;;;;3.72;0.40;;;22.10;62.10;;;;;;4933265;28;20419;-94
2023/08/09 11:21:17;;;;;;;2.73;0.30;;;23.10;62.60;;;;;;4870554;29;20499;-94
2023/08/09 11:23:42;;;;;;;3.63;0.40;;;23.70;59.20;;;;;;4920681;29;20510;-94
2023/08/09 11:26:11;;;;;;;1.60;0.30;;;24.30;56.40;;;;;;4944568;29;20442;-94
2023/08/09 11:29:02;;;;;;;2.53;0.40;;;24.70;59.40;;;;;;4945570;29;20426;-94
2023/08/09 11:32:08;;;;;;;1.65;0.40;;;25.20;58.80;;;;;;4944881;29;20520;-94
2023/08/09 11:34:35;;;;;;;2.00;0.32;;;25.40;52.90;;;;;;4886208;29;20500;-94
2023/08/09 11:37:18;;;;;;;;;;;;;;;;;;;;;
2023/08/09 11:41:03;;;;;;;2.03;0.30;;;24.10;53.90;;;;;;5016273;28;20934;-95
2023/08/09 11:44:09;;;;;;;1.40;0.30;;;23.20;57.30;;;;;;4958269;28;20530;-95
2023/08/09 11:47:10;;;;;;;2.10;0.30;;;22.40;58.20;;;;;;4956772;28;20448;-95
2023/08/09 11:50:46;;;;;;;2.55;0.30;;;22.20;60.30;;;;;;5035394;28;20402;-94
2023/08/09 11:53:14;;;;;;;1.13;0.30;;;22.40;63.20;;;;;;4921851;28;20427;-94
2023/08/09 11:56:09;;;;;;;2.20;0.20;;;22.60;58.50;;;;;;4955769;28;20959;-95
2023/08/09 11:58:51;;;;;;;2.70;0.40;;;22.80;58.20;;;;;;5022554;28;20501;-94
2023/08/09 12:02:01;;;;;;;1.80;0.20;;;22.40;61.60;;;;;;5036326;28;20420;-96
2023/08/09 12:04:56;;;;;;;1.95;0.20;;;22.20;55.10;;;;;;5019978;28;20501;-94
2023/08/09 12:07:33;;;;;;;2.67;0.30;;;22.00;55.40;;;;;;5042193;28;20432;-93
2023/08/09 12:10:03;;;;;;;3.35;0.60;;;21.90;57.30;;;;;;5016042;28;20436;-93
2023/08/09 12:13:20;;;;;;;3.60;0.30;;;22.10;58.90;;;;;;5037014;28;21047;-94
2023/08/09 12:16:10;;;;;;;1.88;0.25;;;22.40;62.30;;;;;;5070693;28;20408;-94
2023/08/09 12:21:56;;;;;;;4.03;0.40;;;21.90;59.20;;;;;;5055467;28;20931;-94
2023/08/09 12:24:25;;;;;;;2.08;0.20;;;22.40;61.90;;;;;;5073167;28;20408;-95
2023/08/09 12:26:51;;;;;;;3.97;0.40;;;22.80;55.50;;;;;;5070936;28;20416;-94
2023/08/09 12:33:10;;;;;;;2.60;0.30;;;23.40;59.60;;;;;;5056196;28;20430;-94
2023/08/09 12:36:12;;;;;;;;;;;;;;;;;;;;;
2023/08/09 12:39:47;;;;;;;1.85;0.30;;;24.30;53.20;;;;;;5094534;28;20430;-95
2023/08/09 12:42:21;;;;;;;4.15;0.38;;;25.00;53.50;;;;;;5023230;28;20456;-94
2023/08/09 12:45:13;;;;;;;2.53;0.40;;;25.60;54.20;;;;;;5020212;28;20414;-94
2023/08/09 12:48:27;;;;;;;;;;;;;;;;;;;;;
2023/08/09 12:52:22;;;;;;;3.92;0.50;;;26.10;48.60;;;;;;5098641;28;20441;-95
2023/08/09 12:55:20;;;;;;;7.35;1.90;;;26.40;49.50;;;;;;5091664;28;20430;-94
2023/08/09 13:01:51;;;;;;;6.03;0.90;;;26.20;48.70;;;;;;4998799;28;20441;-94
2023/08/09 13:08:15;;;;;;;5.10;0.73;;;26.20;47.00;;;;;;4940998;29;20569;-95
2023/08/09 13:11:35;;;;;;;2.85;0.40;;;25.50;52.30;;;;;;4922073;28;20485;-95
2023/08/09 13:15:02;;;;;;;3.90;0.30;;;25.60;48.60;;;;;;4905044;29;20418;-95
2023/08/09 13:17:28;;;;;;;5.67;0.60;;;25.70;46.90;;;;;;4911143;28;20479;-94
2023/08/09 13:19:59;;;;;;;4.65;0.43;;;25.30;51.40;;;;;;4979813;28;20412;-95
2023/08/09 13:25:41;;;;;;;5.07;0.55;;;24.60;54.30;;;;;;4974030;28;20407;-95
2023/08/09 13:32:52;;;;;;;6.95;0.60;;;23.90;56.50;;;;;;4968165;28;20437;-96
2023/08/09 13:36:06;;;;;;;5.75;0.60;;;23.30;53.80;;;;;;4966071;28;21034;-95
2023/08/09 13:39:00;;;;;;;4.57;0.55;;;22.90;56.40;;;;;;4972529;28;20460;-95
2023/08/09 13:46:21;;;;;;;;;;;;;;;;;;;;;
2023/08/09 13:49:39;;;;;;;5.45;0.80;;;24.70;54.90;;;;;;4928539;29;20429;-95
2023/08/09 13:56:36;;;;;;;3.65;0.50;;;24.40;52.60;;;;;;4883694;29;20421;-94
2023/08/09 14:00:07;;;;;;;5.53;0.70;;;24.00;52.50;;;;;;4894208;29;20433;-96
2023/08/09 14:06:17;;;;;;;4.75;0.60;;;24.50;52.90;;;;;;4856025;29;20479;-94
2023/08/09 14:09:16;;;;;;;3.67;0.60;;;25.20;53.20;;;;;;4865808;29;20537;-95
2023/08/09 14:12:21;;;;;;;4.63;0.60;;;25.60;52.00;;;;;;4828064;29;20922;-96
2023/08/09 14:19:00;;;;;;;3.95;0.43;;;26.90;49.00;;;;;;4837452;29;20546;-93
2023/08/09 14:21:51;;;;;;;5.07;0.52;;;26.60;45.10;;;;;;4859353;29;20417;-95
2023/08/09 14:24:41;;;;;;;3.83;0.50;;;25.50;46.20;;;;;;4929123;29;20457;-95
2023/08/09 14:27:06;;;;;;;4.40;0.50;;;24.70;48.80;;;;;;5042416;28;20529;-91
2023/08/09 14:29:32;;;;;;;4.57;0.40;;;23.90;53.10;;;;;;5010234;28;20823;-89
2023/08/09 14:31:58;;;;;;;3.70;0.50;;;23.70;53.10;;;;;;5005939;28;20450;-87
2023/08/09 14:34:25;;;;;;;4.90;0.40;;;23.50;55.20;;;;;;5042399;28;20725;-85
2023/08/09 14:36:51;;;;;;;4.15;0.45;;;23.00;55.50;;;;;;5067387;28;20513;-87
2023/08/09 14:39:17;;;;;;;5.57;0.60;;;22.90;54.40;;;;;;5067309;28;20455;-93
2023/08/09 14:41:42;;;;;;;4.25;0.50;;;22.60;58.60;;;;;;5051689;28;20414;-89
2023/08/09 14:44:08;;;;;;;4.53;0.50;;;22.70;59.20;;;;;;5067694;28;20811;-89
2023/08/09 14:46:35;;;;;;;5.28;0.52;;;22.30;59.40;;;;;;5085976;28;20394;-87
2023/08/09 14:49:01;;;;;;;6.03;0.70;;;22.00;58.80;;;;;;5050825;28;20387;-89
2023/08/09 14:51:26;;;;;;;3.53;0.40;;;22.10;58.10;;;;;;5034604;28;20533;-90
2023/08/09 14:53:52;;;;;;;4.90;0.50;;;21.50;60.10;;;;;;5051740;28;20931;-88
2023/08/09 14:56:18;;;;;;;5.10;0.60;;;21.20;62.00;;;;;;5067725;28;20410;-87
2023/08/09 14:58:45;;;;;;;4.07;0.43;;;21.40;62.90;;;;;;5067472;28;20460;-87
2023/08/09 15:01:10;;;;;;;5.38;0.52;;;21.30;58.40;;;;;;5067607;28;20409;-91
2023/08/09 15:03:36;;;;;;;5.03;0.50;;;21.50;59.90;;;;;;5068446;28;20406;-87
2023/08/09 15:06:02;;;;;;;4.32;0.43;;;21.10;61.10;;;;;;5068293;28;20407;-91
2023/08/09 15:08:28;;;;;;;4.70;0.50;;;20.90;59.40;;;;;;5050859;28;20433;-86
2023/08/09 15:10:57;;;;;;;5.70;0.68;;;21.20;61.10;;;;;;5085952;28;20421;-89
2023/08/09 15:13:23;;;;;;;3.43;0.47;;;20.80;61.00;;;;;;5068154;28;20406;-88